Time;durP1;ratioP1;P1;durP2;ratioP2;P2;SDS_P1;SDS_P2;PMS_P1;PMS_P2;Temp;Humidity;BMP_temperature;BMP_pressure;BME280_temperature;BME280_humidity;BME280_pressure;Samples;Min_cycle;Max_cycle;Signal;HPM_P1;HPM_P2
2021/12/26 00:00:59;;;;;;;;;9.50;7.00;;;;;;;;5178978;27;9101;-76
2021/12/26 00:03:25;;;;;;;;;6.00;5.75;;;;;;;;5178774;27;11356;-77
2021/12/26 00:05:51;;;;;;;;;7.75;6.75;;;;;;;;5178191;27;11370;-76
2021/12/26 00:08:16;;;;;;;;;6.75;6.00;;;;;;;;5178947;27;11352;-76
2021/12/26 00:10:41;;;;;;;;;7.25;6.50;;;;;;;;5178239;27;12498;-75
2021/12/26 00:13:07;;;;;;;;;7.00;5.50;;;;;;;;5177866;27;11510;-76
2021/12/26 00:15:32;;;;;;;;;5.00;5.00;;;;;;;;5178422;27;9425;-76
2021/12/26 00:17:58;;;;;;;;;5.75;5.50;;;;;;;;5168457;27;11296;-76
2021/12/26 00:20:23;;;;;;;;;9.50;7.25;;;;;;;;5164425;27;8938;-76
2021/12/26 00:22:48;;;;;;;;;7.50;6.50;;;;;;;;5163650;27;11881;-76
2021/12/26 00:25:15;;;;;;;;;7.75;7.00;;;;;;;;5163467;27;11436;-76
2021/12/26 00:27:40;;;;;;;;;8.50;7.00;;;;;;;;5164928;27;10566;-77
2021/12/26 00:30:09;;;;;;;;;6.00;4.00;;;;;;;;5164081;27;11417;-76
2021/12/26 00:32:34;;;;;;;;;8.00;5.00;;;;;;;;5163740;27;10375;-76
2021/12/26 00:34:59;;;;;;;;;6.00;5.00;;;;;;;;5164064;27;11499;-76
2021/12/26 00:37:25;;;;;;;;;8.00;5.25;;;;;;;;5164484;27;8794;-76
2021/12/26 00:39:50;;;;;;;;;5.00;5.00;;;;;;;;5164382;27;11286;-77
2021/12/26 00:42:16;;;;;;;;;7.00;7.00;;;;;;;;5164723;27;11537;-77
2021/12/26 00:44:41;;;;;;;;;11.00;7.50;;;;;;;;5164254;27;8795;-77
2021/12/26 00:47:07;;;;;;;;;7.00;7.00;;;;;;;;5163380;27;21389;-77
2021/12/26 00:49:32;;;;;;;;;6.00;6.00;;;;;;;;5163653;27;21625;-77
2021/12/26 00:51:58;;;;;;;;;6.25;6.00;;;;;;;;5163818;27;8767;-76
2021/12/26 00:54:23;;;;;;;;;2.00;0.25;;;;;;;;5164468;27;8791;-77
2021/12/26 00:56:49;;;;;;;;;5.75;5.75;;;;;;;;5162991;27;11265;-77
2021/12/26 00:59:14;;;;;;;;;6.50;5.50;;;;;;;;5163792;27;10328;-77
2021/12/26 01:01:39;;;;;;;;;8.50;7.25;;;;;;;;5164065;27;11356;-76
2021/12/26 01:04:05;;;;;;;;;6.25;6.25;;;;;;;;5164928;27;11279;-84
2021/12/26 01:06:30;;;;;;;;;5.75;5.50;;;;;;;;5145697;27;10705;-84
2021/12/26 01:08:55;;;;;;;;;5.50;5.25;;;;;;;;5164806;27;12000;-83
2021/12/26 01:11:37;;;;;;;;;10.00;7.00;;;;;;;;5146031;27;8928;-83
2021/12/26 01:14:04;;;;;;;;;8.25;7.50;;;;;;;;5163708;27;22304;-84
2021/12/26 01:16:30;;;;;;;;;8.25;8.00;;;;;;;;5145051;27;23585;-84
2021/12/26 01:19:00;;;;;;;;;7.00;7.00;;;;;;;;5164454;27;11486;-84
2021/12/26 01:21:26;;;;;;;;;5.50;5.50;;;;;;;;5163697;27;10538;-84
2021/12/26 01:23:53;;;;;;;;;11.25;8.25;;;;;;;;5164563;27;11435;-84
2021/12/26 01:26:19;;;;;;;;;8.25;6.00;;;;;;;;5163246;27;21628;-83
2021/12/26 01:28:44;;;;;;;;;6.50;6.00;;;;;;;;5163288;27;21358;-83
2021/12/26 01:31:10;;;;;;;;;5.75;5.00;;;;;;;;5164341;27;9511;-83
2021/12/26 01:33:36;;;;;;;;;7.00;5.00;;;;;;;;5163770;27;10858;-84
2021/12/26 01:36:01;;;;;;;;;6.50;6.50;;;;;;;;5164287;27;8936;-84
2021/12/26 01:38:27;;;;;;;;;9.00;6.25;;;;;;;;5164132;27;11570;-83
2021/12/26 01:40:54;;;;;;;;;9.50;5.50;;;;;;;;5164133;27;11302;-83
2021/12/26 01:43:23;;;;;;;;;7.00;7.00;;;;;;;;5164038;27;10371;-83
2021/12/26 01:45:50;;;;;;;;;5.75;5.50;;;;;;;;5162883;27;12045;-84
2021/12/26 01:48:16;;;;;;;;;9.75;6.00;;;;;;;;5163798;27;11383;-84
2021/12/26 01:50:42;;;;;;;;;9.00;7.00;;;;;;;;5163827;27;12156;-83
2021/12/26 01:53:08;;;;;;;;;5.25;5.00;;;;;;;;5164016;27;9445;-84
2021/12/26 01:55:46;;;;;;;;;4.75;4.00;;;;;;;;5163455;27;12006;-84
2021/12/26 01:58:21;;;;;;;;;5.50;5.00;;;;;;;;5163478;27;9718;-83
2021/12/26 02:00:48;;;;;;;;;8.75;6.50;;;;;;;;5163834;27;11375;-82
2021/12/26 02:03:14;;;;;;;;;6.00;6.00;;;;;;;;5162955;27;11525;-83
2021/12/26 02:05:39;;;;;;;;;5.50;5.25;;;;;;;;5163301;27;11449;-84
2021/12/26 02:08:05;;;;;;;;;6.25;5.25;;;;;;;;5144941;27;13802;-84
2021/12/26 02:10:31;;;;;;;;;10.50;6.00;;;;;;;;5144401;27;10972;-83
2021/12/26 02:12:56;;;;;;;;;6.75;6.50;;;;;;;;5162497;27;22055;-83
2021/12/26 02:15:21;;;;;;;;;5.00;5.00;;;;;;;;5162549;27;21507;-83
2021/12/26 02:17:46;;;;;;;;;6.00;6.00;;;;;;;;5162820;27;11303;-83
2021/12/26 02:20:14;;;;;;;;;6.00;5.25;;;;;;;;5163052;27;8784;-83
2021/12/26 02:22:43;;;;;;;;;7.25;6.25;;;;;;;;5144588;27;8946;-83
2021/12/26 02:25:24;;;;;;;;;9.25;6.00;;;;;;;;5162176;27;11676;-83
2021/12/26 02:27:49;;;;;;;;;6.50;6.00;;;;;;;;5163006;27;13024;-83
2021/12/26 02:30:16;;;;;;;;;6.75;6.75;;;;;;;;5163203;27;11374;-83
2021/12/26 02:32:44;;;;;;;;;7.50;7.50;;;;;;;;5162923;27;8794;-83
2021/12/26 02:35:10;;;;;;;;;10.00;8.25;;;;;;;;5163150;27;11387;-83
2021/12/26 02:37:35;;;;;;;;;8.50;7.00;;;;;;;;5162186;27;21615;-82
2021/12/26 02:40:00;;;;;;;;;7.75;6.00;;;;;;;;5162101;27;21341;-83
2021/12/26 02:42:25;;;;;;;;;9.00;8.00;;;;;;;;5144424;27;12920;-83
2021/12/26 02:44:51;;;;;;;;;11.00;10.00;;;;;;;;5162788;27;11459;-82
2021/12/26 02:47:32;;;;;;;;;8.50;8.50;;;;;;;;5143041;27;23392;-83
2021/12/26 02:50:03;;;;;;;;;10.50;7.00;;;;;;;;5161613;27;22376;-83
2021/12/26 02:52:28;;;;;;;;;7.25;6.00;;;;;;;;5161233;27;22817;-82
2021/12/26 02:54:54;;;;;;;;;11.75;8.50;;;;;;;;5161614;27;22473;-83
2021/12/26 02:57:19;;;;;;;;;9.50;8.00;;;;;;;;5161872;27;23976;-82
2021/12/26 02:59:44;;;;;;;;;8.50;8.50;;;;;;;;5162137;27;21349;-82
2021/12/26 03:02:10;;;;;;;;;12.00;11.00;;;;;;;;5162442;27;11412;-82
2021/12/26 03:04:35;;;;;;;;;8.75;8.00;;;;;;;;5161830;27;23419;-83
2021/12/26 03:07:03;;;;;;;;;8.00;7.00;;;;;;;;5161961;27;22274;-82
2021/12/26 03:09:33;;;;;;;;;11.00;9.50;;;;;;;;5162364;27;9522;-83
2021/12/26 03:11:58;;;;;;;;;12.00;10.00;;;;;;;;5161584;27;21593;-84
2021/12/26 03:14:23;;;;;;;;;13.75;10.50;;;;;;;;5143042;27;23908;-84
2021/12/26 03:16:50;;;;;;;;;8.00;8.00;;;;;;;;5162476;27;11357;-83
2021/12/26 03:19:15;;;;;;;;;8.50;6.75;;;;;;;;5163306;27;22876;-83
2021/12/26 03:21:41;;;;;;;;;12.50;10.50;;;;;;;;5174168;27;11367;-84
2021/12/26 03:24:06;;;;;;;;;7.00;6.00;;;;;;;;5169234;27;23381;-83
2021/12/26 03:26:31;;;;;;;;;10.75;7.75;;;;;;;;5162502;27;23474;-83
2021/12/26 03:28:57;;;;;;;;;8.75;7.75;;;;;;;;5162555;27;21474;-84
2021/12/26 03:31:22;;;;;;;;;9.50;7.00;;;;;;;;5144130;27;16748;-85
2021/12/26 03:33:47;;;;;;;;;13.00;9.00;;;;;;;;5162260;27;12410;-85
2021/12/26 03:36:12;;;;;;;;;1.00;0.75;;;;;;;;5161918;27;21489;-85
2021/12/26 03:38:38;;;;;;;;;7.00;6.25;;;;;;;;5161827;27;21326;-84
2021/12/26 03:41:03;;;;;;;;;6.75;6.50;;;;;;;;5161616;27;10239;-83
2021/12/26 03:43:29;;;;;;;;;8.25;6.75;;;;;;;;5143839;27;13223;-82
2021/12/26 03:45:54;;;;;;;;;7.00;7.00;;;;;;;;5161844;27;11279;-82
2021/12/26 03:48:21;;;;;;;;;6.75;6.75;;;;;;;;5162791;27;11268;-83
2021/12/26 03:50:47;;;;;;;;;6.75;6.75;;;;;;;;5161657;27;11681;-83
2021/12/26 03:53:12;;;;;;;;;5.25;5.25;;;;;;;;5164356;27;12152;-82
2021/12/26 03:55:38;;;;;;;;;10.00;8.00;;;;;;;;5165535;27;11919;-83
2021/12/26 03:58:03;;;;;;;;;6.50;5.50;;;;;;;;5164728;27;22026;-82
2021/12/26 04:00:29;;;;;;;;;8.50;5.50;;;;;;;;5164668;27;22767;-83
2021/12/26 04:02:55;;;;;;;;;6.50;6.50;;;;;;;;5165719;27;8906;-83
2021/12/26 04:05:20;;;;;;;;;7.75;6.00;;;;;;;;5165274;27;11564;-83
2021/12/26 04:07:46;;;;;;;;;6.75;5.75;;;;;;;;5165385;27;11861;-83
2021/12/26 04:10:12;;;;;;;;;6.00;5.50;;;;;;;;5165348;27;11319;-84
2021/12/26 04:12:43;;;;;;;;;5.75;5.00;;;;;;;;5146697;27;10670;-83
2021/12/26 04:15:10;;;;;;;;;6.00;6.00;;;;;;;;5164692;27;11540;-84
2021/12/26 04:17:35;;;;;;;;;6.50;6.50;;;;;;;;5165599;27;12095;-83
2021/12/26 04:20:00;;;;;;;;;6.00;6.00;;;;;;;;5166070;27;11593;-83
2021/12/26 04:22:26;;;;;;;;;6.25;5.00;;;;;;;;5165582;27;9472;-82
2021/12/26 04:24:51;;;;;;;;;6.25;6.25;;;;;;;;5163924;27;9599;-83
2021/12/26 04:27:17;;;;;;;;;9.50;5.25;;;;;;;;5145314;27;8786;-84
2021/12/26 04:29:42;;;;;;;;;6.25;5.50;;;;;;;;5144521;27;10278;-84
2021/12/26 04:32:07;;;;;;;;;7.75;5.25;;;;;;;;5144080;27;11654;-84
2021/12/26 04:34:33;;;;;;;;;6.25;4.50;;;;;;;;5144506;27;11296;-85
2021/12/26 04:36:58;;;;;;;;;7.00;5.00;;;;;;;;5143606;27;11375;-82
2021/12/26 04:39:24;;;;;;;;;5.00;5.00;;;;;;;;5144385;27;12664;-82
2021/12/26 04:41:49;;;;;;;;;3.50;2.25;;;;;;;;5144218;27;8801;-82
2021/12/26 04:44:14;;;;;;;;;7.00;3.00;;;;;;;;5143540;27;11439;-83
2021/12/26 04:46:39;;;;;;;;;6.00;6.00;;;;;;;;5144170;27;11508;-83
2021/12/26 04:49:05;;;;;;;;;7.00;5.75;;;;;;;;5125996;27;10574;-84
2021/12/26 04:51:30;;;;;;;;;9.00;5.75;;;;;;;;5144542;27;11294;-84
2021/12/26 04:53:55;;;;;;;;;5.75;5.00;;;;;;;;5144480;27;8822;-83
2021/12/26 04:56:21;;;;;;;;;6.75;5.75;;;;;;;;5144060;27;11289;-82
2021/12/26 04:58:46;;;;;;;;;6.50;6.00;;;;;;;;5143763;27;12587;-83
2021/12/26 05:01:11;;;;;;;;;8.00;5.25;;;;;;;;5144248;27;10265;-85
2021/12/26 05:03:37;;;;;;;;;10.00;6.25;;;;;;;;5144170;27;11304;-86
2021/12/26 05:06:02;;;;;;;;;5.75;5.00;;;;;;;;5142357;27;21810;-84
2021/12/26 05:08:27;;;;;;;;;5.75;5.75;;;;;;;;5143067;27;22485;-84
2021/12/26 05:10:53;;;;;;;;;7.00;5.50;;;;;;;;5144049;27;8790;-84
2021/12/26 05:13:18;;;;;;;;;5.25;5.25;;;;;;;;5143215;27;12425;-84
2021/12/26 05:15:44;;;;;;;;;9.00;6.00;;;;;;;;5143201;27;12637;-83
2021/12/26 05:18:09;;;;;;;;;11.50;9.00;;;;;;;;5142844;27;11845;-83
2021/12/26 05:20:34;;;;;;;;;5.75;4.00;;;;;;;;5143334;27;21370;-84
2021/12/26 05:23:00;;;;;;;;;8.50;6.25;;;;;;;;5142901;27;21487;-85
2021/12/26 05:25:26;;;;;;;;;7.00;6.00;;;;;;;;5143428;27;11371;-84
2021/12/26 05:27:52;;;;;;;;;6.25;5.75;;;;;;;;5143856;27;11439;-85
2021/12/26 05:30:19;;;;;;;;;10.00;10.00;;;;;;;;5124379;27;13252;-85
2021/12/26 05:32:44;;;;;;;;;7.00;5.00;;;;;;;;5143189;27;23508;-85
2021/12/26 05:35:10;;;;;;;;;11.50;7.00;;;;;;;;5143048;27;23516;-84
2021/12/26 05:37:36;;;;;;;;;6.50;6.50;;;;;;;;5142955;27;22710;-84
2021/12/26 05:40:03;;;;;;;;;6.00;6.00;;;;;;;;5142265;27;22787;-83
2021/12/26 05:42:29;;;;;;;;;6.00;6.00;;;;;;;;5143106;27;8950;-83
2021/12/26 05:44:54;;;;;;;;;7.50;6.25;;;;;;;;5143661;27;11421;-83
2021/12/26 05:47:19;;;;;;;;;8.00;6.25;;;;;;;;5143297;27;11522;-84
2021/12/26 05:49:45;;;;;;;;;5.00;4.50;;;;;;;;5143349;27;10509;-84
2021/12/26 05:52:10;;;;;;;;;3.00;3.00;;;;;;;;5137949;27;11377;-83
2021/12/26 05:54:35;;;;;;;;;7.00;5.75;;;;;;;;5132901;27;11709;-82
2021/12/26 05:57:01;;;;;;;;;5.00;5.00;;;;;;;;5133223;27;11278;-82
2021/12/26 05:59:27;;;;;;;;;6.75;5.25;;;;;;;;5131091;27;11565;-84
2021/12/26 06:01:52;;;;;;;;;5.25;5.25;;;;;;;;5131884;27;11799;-83
2021/12/26 06:04:17;;;;;;;;;5.00;5.00;;;;;;;;5129836;27;8896;-82
2021/12/26 06:06:44;;;;;;;;;3.00;3.00;;;;;;;;5131741;27;8897;-80
2021/12/26 06:09:10;;;;;;;;;6.00;5.00;;;;;;;;5130076;27;8812;-81
2021/12/26 06:11:35;;;;;;;;;8.25;7.75;;;;;;;;5131841;27;11464;-81
2021/12/26 06:14:00;;;;;;;;;9.00;9.00;;;;;;;;5141841;27;11536;-89
2021/12/26 06:16:25;;;;;;;;;7.00;7.00;;;;;;;;5143507;27;11295;-87
2021/12/26 06:18:51;;;;;;;;;10.00;8.25;;;;;;;;5143266;27;8782;-85
2021/12/26 06:21:16;;;;;;;;;9.25;8.25;;;;;;;;5125826;27;23597;-89
2021/12/26 06:23:41;;;;;;;;;11.25;7.75;;;;;;;;5150132;27;17615;-93
2021/12/26 06:26:07;;;;;;;;;10.00;9.00;;;;;;;;5146275;27;21834;-89
2021/12/26 06:28:32;;;;;;;;;8.50;8.00;;;;;;;;5144918;27;10372;-88
2021/12/26 06:30:57;;;;;;;;;12.25;8.50;;;;;;;;5144865;27;22467;-88
2021/12/26 06:33:22;;;;;;;;;8.25;7.25;;;;;;;;5125156;27;23715;-84
2021/12/26 06:35:49;;;;;;;;;9.75;8.00;;;;;;;;5141680;27;21432;-89
2021/12/26 06:38:18;;;;;;;;;9.50;9.00;;;;;;;;5124456;27;13838;-85
2021/12/26 06:40:43;;;;;;;;;8.75;6.50;;;;;;;;5122723;27;11610;-88
2021/12/26 06:43:11;;;;;;;;;9.00;8.00;;;;;;;;5141382;27;11549;-88
2021/12/26 06:45:36;;;;;;;;;8.00;7.50;;;;;;;;5141810;27;12126;-86
2021/12/26 06:48:03;;;;;;;;;9.00;8.00;;;;;;;;5122352;27;13202;-84
2021/12/26 06:50:28;;;;;;;;;7.00;7.00;;;;;;;;5122726;27;11460;-86
2021/12/26 06:52:54;;;;;;;;;5.00;5.00;;;;;;;;5142039;27;11400;-91
2021/12/26 06:55:20;;;;;;;;;5.00;5.00;;;;;;;;5142455;27;8782;-82
2021/12/26 06:57:45;;;;;;;;;5.00;5.00;;;;;;;;5141221;27;8805;-84
2021/12/26 07:00:13;;;;;;;;;7.50;7.50;;;;;;;;5141027;27;11434;-83
2021/12/26 07:02:39;;;;;;;;;7.75;7.75;;;;;;;;5141076;27;12075;-83
2021/12/26 07:05:04;;;;;;;;;10.50;8.25;;;;;;;;5140586;27;11441;-86
2021/12/26 07:07:30;;;;;;;;;9.50;7.00;;;;;;;;5141194;27;21676;-84
2021/12/26 07:09:55;;;;;;;;;6.75;6.25;;;;;;;;5139898;27;21287;-83
2021/12/26 07:12:20;;;;;;;;;6.75;5.50;;;;;;;;5138397;27;12730;-77
2021/12/26 07:14:46;;;;;;;;;8.00;7.75;;;;;;;;5140997;27;8789;-81
2021/12/26 07:17:11;;;;;;;;;10.50;8.00;;;;;;;;5140399;27;12690;-79
2021/12/26 07:19:37;;;;;;;;;10.00;5.00;;;;;;;;5140638;27;21904;-81
2021/12/26 07:22:02;;;;;;;;;6.50;6.25;;;;;;;;5140331;27;10523;-81
2021/12/26 07:24:27;;;;;;;;;8.00;7.00;;;;;;;;5140768;27;21450;-81
2021/12/26 07:26:53;;;;;;;;;7.00;7.00;;;;;;;;5140429;27;11293;-81
2021/12/26 07:29:18;;;;;;;;;8.00;8.00;;;;;;;;5144135;27;8801;-82
2021/12/26 07:31:43;;;;;;;;;9.00;7.00;;;;;;;;5144408;27;8786;-82
2021/12/26 07:34:09;;;;;;;;;8.25;8.00;;;;;;;;5144126;27;8798;-81
2021/12/26 07:36:34;;;;;;;;;10.00;8.50;;;;;;;;5143962;27;12234;-81
2021/12/26 07:38:59;;;;;;;;;11.00;10.75;;;;;;;;5143150;27;21615;-78
2021/12/26 07:41:25;;;;;;;;;10.25;9.75;;;;;;;;5138757;27;21926;-75
2021/12/26 07:43:50;;;;;;;;;7.50;7.50;;;;;;;;5140811;27;21500;-76
2021/12/26 07:46:16;;;;;;;;;7.75;7.75;;;;;;;;5142190;27;21393;-77
2021/12/26 07:48:42;;;;;;;;;9.00;9.00;;;;;;;;5142209;27;8794;-78
2021/12/26 07:51:07;;;;;;;;;8.25;8.00;;;;;;;;5142393;27;11452;-78
2021/12/26 07:53:33;;;;;;;;;8.75;8.00;;;;;;;;5142232;27;10687;-78
2021/12/26 07:55:58;;;;;;;;;8.50;8.50;;;;;;;;5141682;27;8802;-79
2021/12/26 07:58:27;;;;;;;;;8.25;7.00;;;;;;;;5141321;27;10002;-79
2021/12/26 08:00:52;;;;;;;;;10.25;7.75;;;;;;;;5142202;27;10583;-78
2021/12/26 08:03:17;;;;;;;;;8.00;8.00;;;;;;;;5142447;27;23251;-79
2021/12/26 08:05:43;;;;;;;;;3.25;3.25;;;;;;;;5140987;27;21597;-79
2021/12/26 08:08:08;;;;;;;;;3.75;3.00;;;;;;;;5123266;27;13334;-79
2021/12/26 08:10:34;;;;;;;;;2.75;2.75;;;;;;;;5141963;27;9145;-79
2021/12/26 08:12:59;;;;;;;;;2.50;2.50;;;;;;;;5142059;27;11282;-79
2021/12/26 08:15:24;;;;;;;;;1.25;1.00;;;;;;;;5122883;27;10939;-78
2021/12/26 08:17:50;;;;;;;;;3.75;2.00;;;;;;;;5141461;27;11340;-79
2021/12/26 08:20:15;;;;;;;;;2.25;1.25;;;;;;;;5141467;27;9484;-78
2021/12/26 08:22:40;;;;;;;;;2.50;1.00;;;;;;;;5141349;27;11348;-78
2021/12/26 08:25:06;;;;;;;;;3.00;3.00;;;;;;;;5136735;27;8810;-79
2021/12/26 08:27:32;;;;;;;;;2.25;2.25;;;;;;;;5139407;27;10666;-77
2021/12/26 08:29:58;;;;;;;;;1.25;0.25;;;;;;;;5140023;27;11930;-76
2021/12/26 08:32:23;;;;;;;;;2.75;2.75;;;;;;;;5141909;27;11401;-77
2021/12/26 08:34:48;;;;;;;;;3.25;3.25;;;;;;;;5143461;27;10307;-78
2021/12/26 08:37:14;;;;;;;;;2.50;2.00;;;;;;;;5141746;27;10434;-79
2021/12/26 08:39:41;;;;;;;;;3.00;2.00;;;;;;;;5120725;27;13962;-80
2021/12/26 08:42:07;;;;;;;;;2.75;2.75;;;;;;;;5137898;27;8996;-79
2021/12/26 08:44:34;;;;;;;;;2.00;2.00;;;;;;;;5141525;27;11468;-77
2021/12/26 08:46:59;;;;;;;;;5.00;5.00;;;;;;;;5141689;27;11475;-77
2021/12/26 08:49:25;;;;;;;;;4.00;4.00;;;;;;;;5141453;27;11483;-76
2021/12/26 08:51:50;;;;;;;;;6.00;5.25;;;;;;;;5141664;27;8887;-77
2021/12/26 08:54:15;;;;;;;;;6.50;5.00;;;;;;;;5142535;27;11310;-75
2021/12/26 08:56:41;;;;;;;;;5.25;4.00;;;;;;;;5141742;27;8806;-76
2021/12/26 08:59:06;;;;;;;;;6.25;5.00;;;;;;;;5142530;27;10273;-77
2021/12/26 09:01:32;;;;;;;;;3.00;3.00;;;;;;;;5142586;27;8822;-76
2021/12/26 09:03:57;;;;;;;;;2.50;1.25;;;;;;;;5142296;27;10512;-75
2021/12/26 09:06:23;;;;;;;;;2.50;1.25;;;;;;;;5141590;27;11323;-76
2021/12/26 09:08:48;;;;;;;;;2.00;2.00;;;;;;;;5142531;27;8845;-81
2021/12/26 09:11:15;;;;;;;;;2.00;2.00;;;;;;;;5123152;27;12888;-74
2021/12/26 09:13:41;;;;;;;;;2.75;2.25;;;;;;;;5141515;27;8782;-77
2021/12/26 09:16:06;;;;;;;;;1.75;1.75;;;;;;;;5142721;27;11410;-71
2021/12/26 09:18:32;;;;;;;;;1.00;1.00;;;;;;;;5142606;27;10284;-71
2021/12/26 09:20:57;;;;;;;;;0.75;0.75;;;;;;;;5142325;27;9101;-73
2021/12/26 09:23:22;;;;;;;;;1.00;1.00;;;;;;;;5141957;27;11502;-74
2021/12/26 09:27:58;;;;;;;;;0.75;0.75;;;;;;;;5174535;27;78781;-72
2021/12/26 09:30:23;;;;;;;;;0.00;0.00;;;;;;;;5157856;27;21731;-79
2021/12/26 09:32:49;;;;;;;;;1.00;1.00;;;;;;;;5157426;27;8810;-75
2021/12/26 09:35:14;;;;;;;;;1.00;1.00;;;;;;;;5158233;27;8791;-75
2021/12/26 09:37:39;;;;;;;;;0.00;0.00;;;;;;;;5158607;27;8776;-76
2021/12/26 09:40:05;;;;;;;;;2.00;2.00;;;;;;;;5158489;27;9537;-78
2021/12/26 09:42:30;;;;;;;;;1.25;1.25;;;;;;;;5156251;27;8830;-73
2021/12/26 09:44:58;;;;;;;;;3.00;2.00;;;;;;;;5158051;27;11631;-75
2021/12/26 09:47:24;;;;;;;;;2.00;1.00;;;;;;;;5157203;27;11730;-74
2021/12/26 09:49:49;;;;;;;;;1.75;1.75;;;;;;;;5155809;27;11363;-75
2021/12/26 09:52:14;;;;;;;;;3.00;2.00;;;;;;;;5157050;27;11334;-73
2021/12/26 09:54:39;;;;;;;;;2.25;1.25;;;;;;;;5155978;27;11324;-73
2021/12/26 09:57:05;;;;;;;;;4.00;2.00;;;;;;;;5154158;27;11437;-74
2021/12/26 09:59:31;;;;;;;;;2.00;1.75;;;;;;;;5145904;27;11471;-72
2021/12/26 10:02:00;;;;;;;;;2.00;2.00;;;;;;;;5114872;27;12229;-73
2021/12/26 10:04:30;;;;;;;;;4.50;3.00;;;;;;;;5093040;28;9614;-79
2021/12/26 10:07:15;;;;;;;;;3.00;3.00;;;;;;;;5095040;28;12182;-73
2021/12/26 10:09:45;;;;;;;;;3.00;3.00;;;;;;;;5098588;27;12289;-73
2021/12/26 10:12:14;;;;;;;;;4.00;3.00;;;;;;;;5094624;28;11486;-76
2021/12/26 10:14:41;;;;;;;;;2.00;2.00;;;;;;;;5095296;28;11387;-80
2021/12/26 10:17:11;;;;;;;;;0.00;0.00;;;;;;;;5095130;28;12488;-74
2021/12/26 10:19:59;;;;;;;;;1.00;1.00;;;;;;;;5100081;28;11473;-77
2021/12/26 10:22:26;;;;;;;;;1.00;1.00;;;;;;;;5105417;28;11395;-75
2021/12/26 10:24:52;;;;;;;;;1.00;1.00;;;;;;;;5101708;28;11412;-75
2021/12/26 10:27:21;;;;;;;;;1.00;1.00;;;;;;;;5102920;28;11403;-77
2021/12/26 10:29:54;;;;;;;;;1.00;1.00;;;;;;;;5110830;28;8792;-76
2021/12/26 10:32:32;;;;;;;;;2.00;2.00;;;;;;;;5115116;27;11349;-76
2021/12/26 10:35:00;;;;;;;;;1.75;1.75;;;;;;;;5115272;27;11582;-77
2021/12/26 10:37:32;;;;;;;;;1.00;1.00;;;;;;;;5112660;27;11586;-75
2021/12/26 10:39:59;;;;;;;;;0.25;0.00;;;;;;;;5101375;28;11461;-71
2021/12/26 10:42:28;;;;;;;;;2.00;2.00;;;;;;;;5100787;28;11402;-78
2021/12/26 10:44:54;;;;;;;;;2.00;2.00;;;;;;;;5102323;28;11386;-77
2021/12/26 10:47:21;;;;;;;;;2.25;1.00;;;;;;;;5102447;28;12115;-74
2021/12/26 10:49:52;;;;;;;;;0.00;0.00;;;;;;;;5102120;28;9512;-77
2021/12/26 10:52:21;;;;;;;;;2.00;1.00;;;;;;;;5101701;28;11736;-74
2021/12/26 10:54:50;;;;;;;;;2.00;2.00;;;;;;;;5102065;28;11298;-73
2021/12/26 10:57:19;;;;;;;;;0.50;0.50;;;;;;;;5100975;28;11387;-73
2021/12/26 10:59:47;;;;;;;;;0.00;0.00;;;;;;;;5101713;28;12657;-77
2021/12/26 11:02:24;;;;;;;;;1.00;1.00;;;;;;;;5101007;28;11362;-76
2021/12/26 11:04:54;;;;;;;;;2.00;0.00;;;;;;;;5101106;28;11357;-74
2021/12/26 11:07:20;;;;;;;;;2.00;1.00;;;;;;;;5100806;28;11372;-75
2021/12/26 11:09:45;;;;;;;;;2.00;2.00;;;;;;;;5101248;28;11381;-76
2021/12/26 11:12:11;;;;;;;;;1.75;1.75;;;;;;;;5100582;28;8783;-77
2021/12/26 11:14:55;;;;;;;;;1.00;1.00;;;;;;;;5101780;28;11525;-85
2021/12/26 11:17:30;;;;;;;;;2.00;2.00;;;;;;;;5101325;28;8771;-80
2021/12/26 11:19:56;;;;;;;;;1.00;1.00;;;;;;;;5099537;28;11379;-79
2021/12/26 11:22:22;;;;;;;;;0.00;0.00;;;;;;;;5101529;28;11454;-79
2021/12/26 11:24:48;;;;;;;;;1.00;0.00;;;;;;;;5101252;28;8917;-75
2021/12/26 11:27:13;;;;;;;;;0.00;0.00;;;;;;;;5098725;28;11196;-79
2021/12/26 11:29:38;;;;;;;;;2.00;0.00;;;;;;;;5090427;28;8839;-74
2021/12/26 11:32:04;;;;;;;;;0.50;0.50;;;;;;;;5080908;28;8801;-78
2021/12/26 11:34:30;;;;;;;;;0.00;0.00;;;;;;;;5080805;28;11441;-77
2021/12/26 11:36:56;;;;;;;;;0.00;0.00;;;;;;;;5079902;28;9006;-74
2021/12/26 11:39:22;;;;;;;;;0.00;0.00;;;;;;;;5080943;28;11280;-74
2021/12/26 11:41:53;;;;;;;;;0.00;0.00;;;;;;;;5080127;28;8932;-74
2021/12/26 11:44:21;;;;;;;;;1.00;1.00;;;;;;;;5080006;28;12285;-75
2021/12/26 11:46:59;;;;;;;;;0.00;0.00;;;;;;;;5080340;28;11390;-76
2021/12/26 11:49:42;;;;;;;;;1.75;1.50;;;;;;;;5079408;28;11378;-78
2021/12/26 11:52:26;;;;;;;;;1.00;1.00;;;;;;;;5080500;28;11379;-75
2021/12/26 11:54:57;;;;;;;;;2.00;2.00;;;;;;;;5080831;28;11654;-75
2021/12/26 11:57:41;;;;;;;;;4.75;4.75;;;;;;;;5080380;28;11523;-76
2021/12/26 12:00:10;;;;;;;;;4.50;2.00;;;;;;;;5080580;28;11384;-74
2021/12/26 12:03:04;;;;;;;;;1.75;1.75;;;;;;;;5080132;28;11361;-75
2021/12/26 12:05:37;;;;;;;;;3.00;3.00;;;;;;;;5066180;28;11389;-76
2021/12/26 12:08:08;;;;;;;;;2.75;2.75;;;;;;;;5079734;28;11901;-75
2021/12/26 12:10:33;;;;;;;;;2.00;2.00;;;;;;;;5078625;28;14093;-76
2021/12/26 12:12:58;;;;;;;;;3.00;2.00;;;;;;;;5079741;28;12094;-76
2021/12/26 12:15:40;;;;;;;;;2.00;2.00;;;;;;;;5080119;28;8782;-76
2021/12/26 12:18:13;;;;;;;;;1.00;1.00;;;;;;;;5080225;28;8780;-76
2021/12/26 12:20:39;;;;;;;;;0.25;0.25;;;;;;;;5079859;28;11378;-76
2021/12/26 12:23:04;;;;;;;;;2.25;1.50;;;;;;;;5078136;28;12134;-74
2021/12/26 12:25:41;;;;;;;;;1.00;1.00;;;;;;;;5079405;28;12617;-75
2021/12/26 12:28:14;;;;;;;;;2.00;1.75;;;;;;;;5080517;28;12626;-75
2021/12/26 12:30:40;;;;;;;;;5.00;5.00;;;;;;;;5079608;28;11600;-74
2021/12/26 12:33:13;;;;;;;;;2.75;2.75;;;;;;;;5080469;28;11876;-74
2021/12/26 12:35:57;;;;;;;;;1.25;1.00;;;;;;;;5079658;28;11482;-75
2021/12/26 12:38:35;;;;;;;;;3.00;3.00;;;;;;;;5079986;28;11525;-74
2021/12/26 12:41:01;;;;;;;;;3.00;3.00;;;;;;;;5080346;28;11466;-75
2021/12/26 12:43:28;;;;;;;;;3.00;3.00;;;;;;;;5079830;28;11568;-75
2021/12/26 12:46:01;;;;;;;;;1.00;1.00;;;;;;;;5078281;28;12198;-76
2021/12/26 12:48:27;;;;;;;;;6.25;3.00;;;;;;;;5080050;28;11456;-74
2021/12/26 12:50:53;;;;;;;;;1.00;1.00;;;;;;;;5079716;28;11479;-76
2021/12/26 12:53:41;;;;;;;;;5.75;4.00;;;;;;;;5079838;28;10327;-77
2021/12/26 12:56:10;;;;;;;;;17.75;16.75;;;;;;;;5079070;28;11435;-75
2021/12/26 12:58:36;;;;;;;;;2.75;1.00;;;;;;;;5078633;28;22315;-76
2021/12/26 13:01:05;;;;;;;;;11.25;10.25;;;;;;;;5079126;28;23645;-77
2021/12/26 13:03:34;;;;;;;;;6.00;5.75;;;;;;;;5078760;28;22829;-77
2021/12/26 13:06:09;;;;;;;;;5.00;5.00;;;;;;;;5078975;28;22377;-75
2021/12/26 13:08:35;;;;;;;;;2.50;2.50;;;;;;;;5080324;28;11532;-75
2021/12/26 13:11:02;;;;;;;;;3.00;3.00;;;;;;;;5078957;28;11379;-75
2021/12/26 13:13:28;;;;;;;;;0.00;0.00;;;;;;;;5079712;28;11355;-76
2021/12/26 13:15:53;;;;;;;;;5.00;3.00;;;;;;;;5079369;28;11408;-75
2021/12/26 13:18:19;;;;;;;;;3.00;3.00;;;;;;;;5079281;28;8782;-73
2021/12/26 13:20:48;;;;;;;;;6.50;2.00;;;;;;;;5079159;28;8790;-74
2021/12/26 13:23:13;;;;;;;;;2.00;2.00;;;;;;;;5079078;28;11497;-74
2021/12/26 13:25:40;;;;;;;;;1.00;1.00;;;;;;;;5078772;28;11461;-74
2021/12/26 13:28:14;;;;;;;;;10.75;6.75;;;;;;;;5079033;28;9642;-74
2021/12/26 13:30:42;;;;;;;;;16.25;16.25;;;;;;;;5078543;28;22735;-75
2021/12/26 13:33:17;;;;;;;;;27.50;25.75;;;;;;;;5077862;28;21985;-74
2021/12/26 13:35:43;;;;;;;;;6.00;3.00;;;;;;;;5078581;28;12421;-75
2021/12/26 13:38:09;;;;;;;;;4.00;4.00;;;;;;;;5078521;28;22476;-74
2021/12/26 13:40:35;;;;;;;;;3.50;2.50;;;;;;;;5079427;28;8794;-75
2021/12/26 13:43:00;;;;;;;;;4.25;2.75;;;;;;;;5078933;28;12540;-75
2021/12/26 13:45:33;;;;;;;;;4.00;4.00;;;;;;;;5078732;28;11514;-74
2021/12/26 13:47:59;;;;;;;;;5.75;2.50;;;;;;;;5077035;28;13357;-74
2021/12/26 13:50:25;;;;;;;;;2.00;1.00;;;;;;;;5078750;28;11389;-74
2021/12/26 13:53:01;;;;;;;;;2.50;1.00;;;;;;;;5079019;28;11511;-74
2021/12/26 13:55:26;;;;;;;;;1.00;1.00;;;;;;;;5078690;28;8786;-75
2021/12/26 13:58:02;;;;;;;;;2.75;2.75;;;;;;;;5078917;28;11453;-74
2021/12/26 14:00:27;;;;;;;;;5.00;2.75;;;;;;;;5079104;28;11919;-76
2021/12/26 14:02:53;;;;;;;;;2.00;2.00;;;;;;;;5079199;28;11410;-75
2021/12/26 14:05:20;;;;;;;;;1.00;1.00;;;;;;;;5079002;28;11705;-76
2021/12/26 14:07:58;;;;;;;;;0.00;0.00;;;;;;;;5078356;28;8886;-76
2021/12/26 14:10:25;;;;;;;;;1.00;1.00;;;;;;;;5078901;28;11417;-76
2021/12/26 14:12:54;;;;;;;;;1.00;1.00;;;;;;;;5077335;28;11427;-76
2021/12/26 14:15:31;;;;;;;;;5.50;1.00;;;;;;;;5082344;28;11387;-74
2021/12/26 14:17:57;;;;;;;;;1.75;1.75;;;;;;;;5081902;28;11382;-77
2021/12/26 14:20:22;;;;;;;;;6.00;2.50;;;;;;;;5080447;28;13670;-74
2021/12/26 14:22:48;;;;;;;;;9.00;6.25;;;;;;;;5082484;28;11303;-75
2021/12/26 14:25:13;;;;;;;;;6.00;3.00;;;;;;;;5082411;28;11377;-76
2021/12/26 14:27:42;;;;;;;;;4.00;3.00;;;;;;;;5081609;28;11988;-74
2021/12/26 14:30:08;;;;;;;;;0.75;0.75;;;;;;;;5082143;28;8902;-75
2021/12/26 14:32:33;;;;;;;;;2.00;2.00;;;;;;;;5082202;28;12097;-76
2021/12/26 14:34:59;;;;;;;;;3.00;3.00;;;;;;;;5081986;28;11304;-76
2021/12/26 14:37:25;;;;;;;;;1.25;1.00;;;;;;;;5083437;28;9586;-74
2021/12/26 14:39:55;;;;;;;;;3.00;2.50;;;;;;;;5090561;28;10395;-75
2021/12/26 14:42:22;;;;;;;;;2.50;2.50;;;;;;;;5083365;28;11624;-75
2021/12/26 14:44:52;;;;;;;;;3.00;3.00;;;;;;;;5080471;28;11377;-76